Time;durP1;ratioP1;P1;durP2;ratioP2;P2;SDS_P1;SDS_P2;PMS_P1;PMS_P2;Temp;Humidity;BMP_temperature;BMP_pressure;BME280_temperature;BME280_humidity;BME280_pressure;Samples;Min_cycle;Max_cycle;Signal;HPM_P1;HPM_P2
2022/06/17 00:01:37;;;;;;;3.73;3.40;;;24.50;58.90;;;;;;5071204;28;20565;-68
2022/06/17 00:04:02;;;;;;;3.97;3.58;;;24.60;58.90;;;;;;5070610;28;20459;-68
2022/06/17 00:06:38;;;;;;;4.20;3.70;;;24.50;58.90;;;;;;5071084;28;20384;-69
2022/06/17 00:09:06;;;;;;;4.15;3.55;;;24.50;58.90;;;;;;5070882;28;20402;-68
2022/06/17 00:11:34;;;;;;;4.00;3.60;;;24.50;58.90;;;;;;5071022;28;20978;-67
2022/06/17 00:13:59;;;;;;;4.00;3.60;;;24.50;58.90;;;;;;5070533;28;20480;-68
2022/06/17 00:16:26;;;;;;;4.18;3.70;;;24.50;58.90;;;;;;5070955;28;20384;-68
2022/06/17 00:18:53;;;;;;;4.53;3.42;;;24.50;58.80;;;;;;5070890;28;20395;-68
2022/06/17 00:21:24;;;;;;;4.57;3.65;;;24.50;58.90;;;;;;5070935;28;20376;-68
2022/06/17 00:23:50;;;;;;;3.75;3.40;;;24.50;58.90;;;;;;5070811;28;20388;-68
2022/06/17 00:26:15;;;;;;;4.38;3.50;;;24.40;58.80;;;;;;5070434;28;20391;-68
2022/06/17 00:28:41;;;;;;;4.30;3.50;;;24.50;58.80;;;;;;5070720;28;20403;-66
2022/06/17 00:31:07;;;;;;;3.90;3.50;;;24.40;58.80;;;;;;5070930;28;20388;-68
2022/06/17 00:33:32;;;;;;;4.23;3.67;;;24.50;58.80;;;;;;5070620;28;20395;-66
2022/06/17 00:35:58;;;;;;;3.65;3.20;;;24.40;58.80;;;;;;5070376;28;20445;-68
2022/06/17 00:38:29;;;;;;;4.10;3.70;;;24.50;58.80;;;;;;5071725;28;20412;-68
2022/06/17 00:40:58;;;;;;;4.03;3.60;;;24.50;58.80;;;;;;5074444;28;20390;-68
2022/06/17 00:43:31;;;;;;;4.03;3.40;;;24.40;58.80;;;;;;5074311;28;20403;-68
2022/06/17 00:46:10;;;;;;;3.90;3.60;;;24.40;58.80;;;;;;5073858;28;20383;-67
2022/06/17 00:48:44;;;;;;;3.83;3.43;;;24.40;58.70;;;;;;5074239;28;20390;-68
2022/06/17 00:51:23;;;;;;;3.80;3.40;;;24.40;58.80;;;;;;5074361;28;20411;-68
2022/06/17 00:54:20;;;;;;;3.85;3.38;;;24.40;58.80;;;;;;5073520;28;20395;-68
2022/06/17 00:56:45;;;;;;;3.97;3.58;;;24.40;58.80;;;;;;5073560;28;20424;-68
2022/06/17 00:59:16;;;;;;;3.90;3.50;;;24.40;58.70;;;;;;5074006;28;20394;-68
2022/06/17 01:01:46;;;;;;;4.13;3.30;;;24.40;58.80;;;;;;5074077;28;20417;-68
2022/06/17 01:04:15;;;;;;;3.90;3.50;;;24.40;58.80;;;;;;5073616;28;20419;-68
2022/06/17 01:06:46;;;;;;;3.85;3.30;;;24.40;58.80;;;;;;5073780;28;20384;-68
2022/06/17 01:12:08;;;;;;;5.33;3.77;;;24.40;58.70;;;;;;5073413;28;20391;-68
2022/06/17 01:14:34;;;;;;;3.80;3.50;;;24.40;58.80;;;;;;5055631;28;20427;-67
2022/06/17 01:17:02;;;;;;;3.92;3.53;;;24.40;58.70;;;;;;5073702;28;20483;-68
2022/06/17 01:19:40;;;;;;;4.53;3.40;;;24.40;58.70;;;;;;5073563;28;20385;-68
2022/06/17 01:22:45;;;;;;;4.00;3.60;;;24.30;58.60;;;;;;5054918;28;20432;-68
2022/06/17 01:25:33;;;;;;;3.92;3.63;;;24.30;58.60;;;;;;5073048;28;20463;-68
2022/06/17 01:28:07;;;;;;;3.70;3.40;;;24.30;58.70;;;;;;5073102;28;20864;-68
2022/06/17 01:30:54;;;;;;;3.60;3.30;;;24.30;58.60;;;;;;5073537;28;20391;-67
2022/06/17 01:33:37;;;;;;;4.20;3.60;;;24.30;58.60;;;;;;5073476;28;20384;-67
2022/06/17 01:36:20;;;;;;;3.97;3.58;;;24.40;58.70;;;;;;5072936;28;20384;-67
2022/06/17 01:38:50;;;;;;;4.00;3.60;;;24.30;58.50;;;;;;5055430;28;20404;-68
2022/06/17 01:41:19;;;;;;;3.50;3.20;;;24.30;58.50;;;;;;5073414;28;20376;-68
2022/06/17 01:43:51;;;;;;;4.00;3.60;;;24.30;58.50;;;;;;5073202;28;20435;-68
2022/06/17 01:46:22;;;;;;;4.07;3.60;;;24.30;58.70;;;;;;5072759;28;20399;-67
2022/06/17 01:49:11;;;;;;;4.67;3.53;;;24.30;58.60;;;;;;5073186;28;20515;-68
2022/06/17 01:51:41;;;;;;;4.50;3.50;;;24.30;58.60;;;;;;5071754;28;20392;-68
2022/06/17 01:54:12;;;;;;;3.80;3.37;;;24.30;58.50;;;;;;5054532;28;20411;-67
2022/06/17 01:56:41;;;;;;;3.92;3.20;;;24.30;58.50;;;;;;5054296;28;20492;-68
2022/06/17 01:59:18;;;;;;;4.30;3.30;;;24.30;58.60;;;;;;5054923;28;20406;-68
2022/06/17 02:01:47;;;;;;;3.90;3.40;;;24.30;58.50;;;;;;5072894;28;20398;-68
2022/06/17 02:04:19;;;;;;;3.78;3.35;;;24.30;58.50;;;;;;5072498;28;20802;-68
2022/06/17 02:07:00;;;;;;;3.85;3.38;;;24.30;58.50;;;;;;5072669;28;20503;-69
2022/06/17 02:09:26;;;;;;;3.70;3.40;;;24.30;58.50;;;;;;5072763;28;20391;-68
2022/06/17 02:11:53;;;;;;;3.80;3.42;;;24.30;58.40;;;;;;5054783;28;20905;-68
2022/06/17 02:14:19;;;;;;;3.63;3.33;;;24.30;58.40;;;;;;5072063;28;20444;-68
2022/06/17 02:16:50;;;;;;;3.70;3.40;;;24.30;58.40;;;;;;5054610;28;20490;-67
2022/06/17 02:19:16;;;;;;;3.93;3.50;;;24.30;58.30;;;;;;5072492;28;20407;-68
2022/06/17 02:21:47;;;;;;;3.58;3.28;;;24.30;58.30;;;;;;5072256;28;20380;-68
2022/06/17 02:24:14;;;;;;;4.00;3.20;;;24.20;58.20;;;;;;5071819;28;20476;-68
2022/06/17 02:26:42;;;;;;;3.80;3.50;;;24.20;58.20;;;;;;5072318;28;20383;-67
2022/06/17 02:29:11;;;;;;;3.60;3.30;;;24.20;58.30;;;;;;5072337;28;20740;-67
2022/06/17 02:31:39;;;;;;;3.50;3.20;;;24.20;58.40;;;;;;5072306;28;20375;-68
2022/06/17 02:34:06;;;;;;;3.60;3.30;;;24.20;58.30;;;;;;5071813;28;20384;-68
2022/06/17 02:36:40;;;;;;;3.70;3.40;;;24.20;58.30;;;;;;5054219;28;20751;-69
2022/06/17 02:39:06;;;;;;;4.20;3.30;;;24.20;58.20;;;;;;5072062;28;20512;-68
2022/06/17 02:41:32;;;;;;;4.70;3.40;;;24.20;58.20;;;;;;5071532;28;20471;-68
2022/06/17 02:44:05;;;;;;;3.40;3.10;;;24.20;58.20;;;;;;5072004;28;20391;-68
2022/06/17 02:46:37;;;;;;;4.55;3.40;;;24.20;58.00;;;;;;5071893;28;20387;-67
2022/06/17 02:49:07;;;;;;;3.95;3.30;;;24.20;58.00;;;;;;5072003;28;20410;-69
2022/06/17 02:51:36;;;;;;;4.07;3.67;;;24.20;58.00;;;;;;5071816;28;20794;-68
2022/06/17 02:54:04;;;;;;;3.72;3.28;;;24.20;57.90;;;;;;5071583;28;20387;-67
2022/06/17 02:56:32;;;;;;;4.10;3.20;;;24.20;57.90;;;;;;5071824;28;20392;-68
2022/06/17 02:59:21;;;;;;;3.40;3.10;;;24.20;57.90;;;;;;5071920;28;20439;-68
2022/06/17 03:01:50;;;;;;;3.20;2.90;;;24.20;57.90;;;;;;5071551;28;20391;-68
2022/06/17 03:04:19;;;;;;;3.55;3.20;;;24.20;57.80;;;;;;5071174;28;20398;-67
2022/06/17 03:06:47;;;;;;;3.47;3.17;;;24.20;57.90;;;;;;5053729;28;20419;-67
2022/06/17 03:09:17;;;;;;;3.55;3.25;;;24.20;57.90;;;;;;5071628;28;20387;-68
2022/06/17 03:11:45;;;;;;;3.40;3.10;;;24.10;57.80;;;;;;5071494;28;20745;-68
2022/06/17 03:14:12;;;;;;;3.60;3.30;;;24.20;58.00;;;;;;5070926;28;20412;-68
2022/06/17 03:16:40;;;;;;;3.33;3.03;;;24.10;57.90;;;;;;5071419;28;20446;-67
2022/06/17 03:19:06;;;;;;;3.53;3.20;;;24.10;57.90;;;;;;5071470;28;20870;-66
2022/06/17 03:21:33;;;;;;;3.75;3.05;;;24.10;57.90;;;;;;5071468;28;20517;-66
2022/06/17 03:24:19;;;;;;;3.85;3.05;;;24.20;57.90;;;;;;5071544;28;20392;-68
2022/06/17 03:27:19;;;;;;;3.38;3.08;;;24.10;57.90;;;;;;5052760;28;20533;-68
2022/06/17 03:29:47;;;;;;;4.15;3.17;;;24.10;57.80;;;;;;5071002;28;20444;-67
2022/06/17 03:32:22;;;;;;;3.90;3.33;;;24.10;57.80;;;;;;5070844;28;20398;-68
2022/06/17 03:34:51;;;;;;;3.78;3.38;;;24.20;57.90;;;;;;5071366;28;20379;-68
2022/06/17 03:37:46;;;;;;;3.78;3.10;;;24.10;57.80;;;;;;5071341;28;20772;-68
2022/06/17 03:40:17;;;;;;;3.63;3.33;;;24.10;57.80;;;;;;5070860;28;20414;-67
2022/06/17 03:43:08;;;;;;;3.70;3.30;;;24.10;57.80;;;;;;5071307;28;20395;-67
2022/06/17 03:45:46;;;;;;;4.47;3.35;;;24.10;57.70;;;;;;5071201;28;20422;-67
2022/06/17 03:48:25;;;;;;;3.72;3.10;;;24.10;57.70;;;;;;5070927;28;20475;-67
2022/06/17 03:50:51;;;;;;;3.40;3.10;;;24.10;57.80;;;;;;5071273;28;20384;-67
2022/06/17 03:53:28;;;;;;;3.40;3.10;;;24.10;57.80;;;;;;5071160;28;20403;-68
2022/06/17 03:55:57;;;;;;;4.28;3.30;;;24.10;57.60;;;;;;5070933;28;20883;-67
2022/06/17 03:58:23;;;;;;;3.50;3.20;;;24.10;57.80;;;;;;5070158;28;20899;-68
2022/06/17 04:00:58;;;;;;;3.40;3.10;;;24.10;57.80;;;;;;5071154;28;20379;-68
2022/06/17 04:03:29;;;;;;;3.30;3.00;;;24.10;57.70;;;;;;5071039;28;20490;-68
2022/06/17 04:06:08;;;;;;;3.37;2.97;;;24.10;57.80;;;;;;5053130;28;20391;-63
2022/06/17 04:08:35;;;;;;;3.22;2.90;;;24.10;57.80;;;;;;5070711;28;20443;-63
2022/06/17 04:11:02;;;;;;;4.05;3.60;;;24.10;58.70;;;;;;5070862;28;20386;-63
2022/06/17 04:13:31;;;;;;;4.80;3.40;;;24.10;58.70;;;;;;5053767;28;20744;-63
2022/06/17 04:16:20;;;;;;;4.40;3.30;;;24.10;58.60;;;;;;5074722;28;20432;-64
2022/06/17 04:18:45;;;;;;;4.35;3.40;;;24.10;58.20;;;;;;5074811;28;20399;-63
2022/06/17 04:21:13;;;;;;;5.15;3.90;;;24.10;59.10;;;;;;5074658;28;20392;-63
2022/06/17 04:23:40;;;;;;;5.72;3.45;;;24.10;60.90;;;;;;5074650;28;20384;-63
2022/06/17 04:26:17;;;;;;;6.43;3.63;;;24.20;60.80;;;;;;5074204;28;20423;-63
2022/06/17 04:28:53;;;;;;;4.00;3.40;;;24.20;61.00;;;;;;5074589;28;20470;-62
2022/06/17 04:31:24;;;;;;;4.10;3.47;;;24.20;60.90;;;;;;5056522;28;20391;-63
2022/06/17 04:34:13;;;;;;;4.43;3.47;;;24.20;60.20;;;;;;5074522;28;20430;-63
2022/06/17 04:36:52;;;;;;;4.28;3.30;;;24.20;60.70;;;;;;5074273;28;20403;-63
2022/06/17 04:39:29;;;;;;;4.40;3.50;;;24.20;60.20;;;;;;5074511;28;20478;-63
2022/06/17 04:41:59;;;;;;;5.25;3.60;;;24.20;59.60;;;;;;5074131;28;20384;-63
2022/06/17 04:44:24;;;;;;;6.38;3.83;;;24.20;59.80;;;;;;5073961;28;20486;-63
2022/06/17 04:47:03;;;;;;;5.65;3.55;;;24.20;60.30;;;;;;5056096;28;20487;-63
2022/06/17 04:49:33;;;;;;;7.57;3.70;;;24.20;60.20;;;;;;5074341;28;20453;-63
2022/06/17 04:52:03;;;;;;;4.53;3.63;;;24.20;60.10;;;;;;5074274;28;20383;-63
2022/06/17 04:54:29;;;;;;;4.57;3.90;;;24.20;60.20;;;;;;5073703;28;20376;-63
2022/06/17 04:56:58;;;;;;;6.35;4.18;;;24.30;60.40;;;;;;5073566;28;20400;-63
2022/06/17 04:59:32;;;;;;;6.05;4.10;;;24.30;60.10;;;;;;5074057;28;20395;-64
2022/06/17 05:02:00;;;;;;;6.53;4.68;;;24.30;60.20;;;;;;5073898;28;20921;-67
2022/06/17 05:04:27;;;;;;;5.83;3.97;;;24.30;60.20;;;;;;5073365;28;20571;-65
2022/06/17 05:06:53;;;;;;;5.68;4.28;;;24.30;60.50;;;;;;5072846;28;20414;-62
2022/06/17 05:09:34;;;;;;;6.80;4.10;;;24.30;60.30;;;;;;5071685;28;20433;-67
2022/06/17 05:12:24;;;;;;;4.70;4.00;;;24.30;60.20;;;;;;5055198;28;20392;-64
2022/06/17 05:14:58;;;;;;;6.33;4.03;;;24.30;59.90;;;;;;5073403;28;20887;-68
2022/06/17 05:17:24;;;;;;;8.43;4.15;;;24.30;60.10;;;;;;5073504;28;20416;-63
2022/06/17 05:19:50;;;;;;;7.03;4.45;;;24.30;60.00;;;;;;5073515;28;20383;-63
2022/06/17 05:22:21;;;;;;;6.13;4.20;;;24.30;60.00;;;;;;5072198;28;20927;-64
2022/06/17 05:24:47;;;;;;;8.67;5.77;;;24.30;60.10;;;;;;5073502;28;20416;-63
2022/06/17 05:27:12;;;;;;;8.20;5.20;;;24.30;59.20;;;;;;5073573;28;20759;-63
2022/06/17 05:29:38;;;;;;;7.10;5.10;;;24.30;59.20;;;;;;5073302;28;20387;-65
2022/06/17 05:32:04;;;;;;;8.23;5.10;;;24.30;59.20;;;;;;5073571;28;20790;-67
2022/06/17 05:34:30;;;;;;;8.32;5.50;;;24.30;59.30;;;;;;5071252;28;20417;-67
2022/06/17 05:36:56;;;;;;;8.23;5.40;;;24.30;59.30;;;;;;5073459;28;20396;-64
2022/06/17 05:39:23;;;;;;;8.65;5.25;;;24.30;59.70;;;;;;5073202;28;20403;-63
2022/06/17 05:41:49;;;;;;;7.40;5.20;;;24.30;59.80;;;;;;5069970;28;20391;-63
2022/06/17 05:44:15;;;;;;;7.50;5.38;;;24.30;59.70;;;;;;5052727;28;20397;-66
2022/06/17 05:46:43;;;;;;;8.77;6.10;;;24.30;59.50;;;;;;5053012;28;20741;-66
2022/06/17 05:49:08;;;;;;;8.70;5.35;;;24.30;59.90;;;;;;5053085;28;20401;-64
2022/06/17 05:51:34;;;;;;;10.57;5.53;;;24.30;60.90;;;;;;5052908;28;20385;-65
2022/06/17 05:54:00;;;;;;;9.90;5.60;;;24.30;61.50;;;;;;5052917;28;20414;-65
2022/06/17 05:56:25;;;;;;;10.63;5.80;;;24.30;60.70;;;;;;5052503;28;20393;-63
2022/06/17 05:58:51;;;;;;;12.35;6.00;;;24.30;60.70;;;;;;5052876;28;20401;-64
2022/06/17 06:01:17;;;;;;;9.73;5.80;;;24.30;60.50;;;;;;5052903;28;20896;-64
2022/06/17 06:03:42;;;;;;;6.80;5.90;;;24.30;60.90;;;;;;5052708;28;20394;-65
2022/06/17 06:06:08;;;;;;;11.43;5.83;;;24.30;60.10;;;;;;5052830;28;20463;-65
2022/06/17 06:08:34;;;;;;;8.07;5.47;;;24.30;60.80;;;;;;5051961;28;20520;-67
2022/06/17 06:11:03;;;;;;;8.48;5.50;;;24.30;60.80;;;;;;5052478;28;20451;-65
2022/06/17 06:13:29;;;;;;;9.20;5.40;;;24.30;60.30;;;;;;5040821;28;20410;-65
2022/06/17 06:15:55;;;;;;;9.15;5.60;;;24.30;60.60;;;;;;5051232;28;20477;-64
2022/06/17 06:18:28;;;;;;;8.40;5.18;;;24.30;60.50;;;;;;5051929;28;20897;-66
2022/06/17 06:20:54;;;;;;;9.38;5.70;;;24.40;60.10;;;;;;5050688;28;20401;-64
2022/06/17 06:23:20;;;;;;;9.60;5.83;;;24.40;60.00;;;;;;5052555;28;20825;-64
2022/06/17 06:25:46;;;;;;;9.57;6.22;;;24.40;59.90;;;;;;5052506;28;20388;-65
2022/06/17 06:28:17;;;;;;;11.37;6.10;;;24.30;59.70;;;;;;5050723;28;20389;-69
2022/06/17 06:30:51;;;;;;;9.10;5.90;;;24.40;59.90;;;;;;5051192;28;20397;-70
2022/06/17 06:33:17;;;;;;;9.38;6.00;;;24.40;59.60;;;;;;5052342;28;20803;-70
2022/06/17 06:35:42;;;;;;;10.10;5.88;;;24.40;60.00;;;;;;5051820;28;20389;-70
2022/06/17 06:38:08;;;;;;;10.20;5.70;;;24.40;59.90;;;;;;5050891;28;20418;-70
2022/06/17 06:40:35;;;;;;;11.13;6.10;;;24.40;59.80;;;;;;5051684;28;20385;-69
2022/06/17 06:43:01;;;;;;;9.32;5.72;;;24.40;59.80;;;;;;5051972;28;20393;-70
2022/06/17 06:45:34;;;;;;;9.17;5.80;;;24.40;59.80;;;;;;5052238;28;20853;-70
2022/06/17 06:48:03;;;;;;;10.73;5.93;;;24.50;59.70;;;;;;5050903;28;20394;-69
2022/06/17 06:50:31;;;;;;;11.10;5.53;;;24.40;59.90;;;;;;5051634;28;20389;-67
2022/06/17 06:52:57;;;;;;;11.93;5.60;;;24.40;59.70;;;;;;5052031;28;20401;-70
2022/06/17 06:55:24;;;;;;;9.80;5.80;;;24.40;59.80;;;;;;5051978;28;20818;-70
2022/06/17 06:57:51;;;;;;;9.30;5.50;;;24.50;59.80;;;;;;5051802;28;20470;-70
2022/06/17 07:00:39;;;;;;;9.00;5.43;;;24.40;59.70;;;;;;5051662;28;20389;-70
2022/06/17 07:03:06;;;;;;;10.57;5.50;;;24.50;59.70;;;;;;5049894;28;20452;-69
2022/06/17 07:05:33;;;;;;;9.45;5.70;;;24.50;59.70;;;;;;5051794;28;20477;-69
2022/06/17 07:07:58;;;;;;;8.98;5.28;;;24.50;59.70;;;;;;5051783;28;20455;-69
2022/06/17 07:10:28;;;;;;;8.57;5.37;;;24.50;59.70;;;;;;5051242;28;20385;-69
2022/06/17 07:12:54;;;;;;;7.37;5.20;;;24.50;59.60;;;;;;5054064;28;20446;-69
2022/06/17 07:15:20;;;;;;;6.90;4.90;;;24.50;59.50;;;;;;5071721;28;20400;-72
2022/06/17 07:18:06;;;;;;;7.95;5.00;;;24.60;59.60;;;;;;5071555;28;20426;-70
2022/06/17 07:20:42;;;;;;;7.57;5.13;;;24.50;59.40;;;;;;5071143;28;20489;-70
2022/06/17 07:23:10;;;;;;;9.02;5.35;;;24.60;59.60;;;;;;5071618;28;20411;-70
2022/06/17 07:25:37;;;;;;;9.27;5.22;;;24.60;59.50;;;;;;5071472;28;20442;-70
2022/06/17 07:28:03;;;;;;;7.97;4.85;;;24.60;59.40;;;;;;5071539;28;20470;-70
2022/06/17 07:30:30;;;;;;;7.80;5.40;;;24.60;59.40;;;;;;5070965;28;20388;-69
2022/06/17 07:32:56;;;;;;;7.70;5.10;;;24.60;59.40;;;;;;5071408;28;20441;-70
2022/06/17 07:35:22;;;;;;;7.33;5.20;;;24.60;59.30;;;;;;5071438;28;20409;-70
2022/06/17 07:40:32;;;;;;;8.57;5.40;;;24.70;59.30;;;;;;5071133;28;20399;-70
2022/06/17 07:42:59;;;;;;;8.20;5.25;;;24.70;59.30;;;;;;5071402;28;20387;-69
2022/06/17 07:45:26;;;;;;;8.43;5.10;;;24.70;59.20;;;;;;5071391;28;20537;-70
2022/06/17 07:47:54;;;;;;;7.05;5.10;;;24.70;59.20;;;;;;5071561;28;20524;-70
2022/06/17 07:50:32;;;;;;;6.33;4.93;;;24.70;59.10;;;;;;5075358;28;20380;-69
2022/06/17 07:52:58;;;;;;;7.68;4.90;;;24.70;59.10;;;;;;5075520;28;20379;-69
2022/06/17 07:55:24;;;;;;;7.27;5.03;;;24.70;59.10;;;;;;5075431;28;20475;-68
2022/06/17 07:57:51;;;;;;;5.95;4.82;;;24.70;59.10;;;;;;5075313;28;20447;-69
2022/06/17 08:00:30;;;;;;;6.10;4.50;;;24.70;59.10;;;;;;5075347;28;20426;-69
2022/06/17 08:02:56;;;;;;;7.90;5.03;;;24.80;59.00;;;;;;5075339;28;20387;-69
2022/06/17 08:05:22;;;;;;;6.80;4.90;;;24.80;59.00;;;;;;5075216;28;20467;-69
2022/06/17 08:07:49;;;;;;;6.60;4.85;;;24.70;58.90;;;;;;5075189;28;20398;-70
2022/06/17 08:10:16;;;;;;;6.28;4.60;;;24.80;58.90;;;;;;5075337;28;20395;-69
2022/06/17 08:12:41;;;;;;;6.90;4.68;;;24.80;58.90;;;;;;5074381;28;20825;-70
2022/06/17 08:15:07;;;;;;;5.93;4.67;;;24.80;58.90;;;;;;5075096;28;20482;-70
2022/06/17 08:17:33;;;;;;;6.93;4.70;;;24.80;58.80;;;;;;5074863;28;20399;-70
2022/06/17 08:19:58;;;;;;;6.10;4.60;;;24.80;58.80;;;;;;5074969;28;20449;-69
2022/06/17 08:22:25;;;;;;;6.83;4.80;;;24.80;58.60;;;;;;5074447;28;20802;-70
2022/06/17 08:24:56;;;;;;;6.55;4.70;;;24.80;58.70;;;;;;5074778;28;20883;-70
2022/06/17 08:27:22;;;;;;;6.40;4.75;;;24.80;58.70;;;;;;5074847;28;20410;-70
2022/06/17 08:29:47;;;;;;;6.28;4.40;;;24.80;58.70;;;;;;5074753;28;20411;-70
2022/06/17 08:34:58;;;;;;;5.40;4.25;;;24.80;58.50;;;;;;5074649;28;20382;-70
2022/06/17 08:37:24;;;;;;;5.07;4.38;;;24.80;58.50;;;;;;5074492;28;20420;-70
2022/06/17 08:39:51;;;;;;;5.33;4.47;;;24.80;58.20;;;;;;5074476;28;20429;-70
2022/06/17 08:42:44;;;;;;;5.60;4.38;;;24.80;58.10;;;;;;5056722;28;20387;-70
2022/06/17 08:45:23;;;;;;;4.47;4.03;;;24.80;58.00;;;;;;5074476;28;20388;-70
2022/06/17 08:48:05;;;;;;;4.63;4.10;;;24.80;58.00;;;;;;5074365;28;20922;-70
2022/06/17 08:50:37;;;;;;;5.57;4.22;;;24.80;58.00;;;;;;5073784;28;20441;-69
2022/06/17 08:53:17;;;;;;;4.70;4.20;;;24.80;57.90;;;;;;5074402;28;20859;-70
2022/06/17 08:55:47;;;;;;;5.00;4.20;;;24.80;58.00;;;;;;5074130;28;20391;-70
2022/06/17 08:58:22;;;;;;;4.65;4.10;;;24.80;58.00;;;;;;5074228;28;20415;-70
2022/06/17 09:01:23;;;;;;;4.68;4.10;;;24.80;58.00;;;;;;5055478;28;20392;-70
2022/06/17 09:04:09;;;;;;;4.65;4.00;;;24.80;57.90;;;;;;5073924;28;20391;-70
2022/06/17 09:06:57;;;;;;;4.63;4.10;;;24.80;57.80;;;;;;5073601;28;20390;-70
2022/06/17 09:10:26;;;;;;;5.40;4.20;;;24.80;57.90;;;;;;5073275;28;20392;-70
2022/06/17 09:12:57;;;;;;;4.35;3.95;;;24.80;57.80;;;;;;5011819;28;20420;-69
2022/06/17 09:15:32;;;;;;;5.32;4.25;;;24.90;57.80;;;;;;5012052;28;20448;-70
2022/06/17 09:18:05;;;;;;;4.60;3.97;;;24.80;57.70;;;;;;5057283;28;20449;-69
2022/06/17 09:20:36;;;;;;;4.90;3.90;;;24.80;57.60;;;;;;5073281;28;20390;-70
2022/06/17 09:23:05;;;;;;;4.68;4.10;;;24.90;57.70;;;;;;5073862;28;20513;-70
2022/06/17 09:25:52;;;;;;;4.25;3.85;;;24.80;57.60;;;;;;5073690;28;20380;-70
2022/06/17 09:28:45;;;;;;;4.65;3.80;;;24.80;57.50;;;;;;5073587;28;20396;-70
2022/06/17 09:31:24;;;;;;;4.83;3.73;;;24.80;57.50;;;;;;5072647;28;20434;-70
2022/06/17 09:34:08;;;;;;;4.10;3.70;;;24.80;57.50;;;;;;5073476;28;20766;-70
2022/06/17 09:36:46;;;;;;;4.03;3.67;;;24.90;57.50;;;;;;5072879;28;20390;-70
2022/06/17 09:39:29;;;;;;;4.22;3.83;;;24.90;57.40;;;;;;5073442;28;20406;-70
2022/06/17 09:42:04;;;;;;;4.03;3.63;;;24.80;57.30;;;;;;5073353;28;20851;-69
2022/06/17 09:44:37;;;;;;;4.28;3.88;;;24.90;57.40;;;;;;5072813;28;20756;-69
2022/06/17 09:47:15;;;;;;;3.83;3.53;;;24.80;57.30;;;;;;5073368;28;20376;-70
2022/06/17 09:49:47;;;;;;;4.50;4.10;;;24.90;57.30;;;;;;5073170;28;20872;-70
2022/06/17 09:52:22;;;;;;;4.38;3.60;;;24.90;57.30;;;;;;5073200;28;20399;-70
2022/06/17 09:55:04;;;;;;;4.20;3.80;;;24.90;57.30;;;;;;5072648;28;20748;-69
2022/06/17 09:58:03;;;;;;;4.10;3.70;;;24.90;57.20;;;;;;5055001;28;20447;-69
2022/06/17 10:00:35;;;;;;;4.38;3.65;;;24.90;57.20;;;;;;5072531;28;20477;-68
2022/06/17 10:03:24;;;;;;;3.60;3.30;;;24.90;57.10;;;;;;5072971;28;20383;-70
2022/06/17 10:06:19;;;;;;;3.97;3.63;;;24.90;57.10;;;;;;5055017;28;20449;-70
2022/06/17 10:09:02;;;;;;;4.18;3.78;;;24.90;57.00;;;;;;5061986;28;20398;-70
2022/06/17 10:11:56;;;;;;;4.00;3.60;;;24.90;57.00;;;;;;5053918;28;20755;-69
2022/06/17 10:14:41;;;;;;;3.90;3.58;;;24.90;57.00;;;;;;5032845;28;20465;-69
2022/06/17 10:20:07;;;;;;;4.00;3.60;;;24.90;56.90;;;;;;5072955;28;20445;-70
2022/06/17 10:22:51;;;;;;;4.07;3.70;;;24.90;57.00;;;;;;5071975;28;20437;-70
2022/06/17 10:25:46;;;;;;;3.90;3.60;;;24.90;56.90;;;;;;5054600;28;20421;-70
2022/06/17 10:28:31;;;;;;;3.80;3.50;;;24.90;56.90;;;;;;5072415;28;20390;-70
2022/06/17 10:31:20;;;;;;;4.13;3.72;;;24.90;56.90;;;;;;5072388;28;20721;-70
2022/06/17 10:33:45;;;;;;;4.30;3.90;;;24.90;56.80;;;;;;5072240;28;20379;-70
2022/06/17 10:36:11;;;;;;;4.13;3.72;;;24.90;56.80;;;;;;5054523;28;20396;-70
2022/06/17 10:38:42;;;;;;;4.03;3.63;;;24.90;56.80;;;;;;5071626;28;20502;-69
2022/06/17 10:41:10;;;;;;;3.72;3.40;;;24.90;56.70;;;;;;5054231;28;20392;-70
2022/06/17 10:43:43;;;;;;;4.53;4.13;;;24.90;56.70;;;;;;5072083;28;20383;-70
2022/06/17 10:46:19;;;;;;;4.10;3.70;;;24.90;56.60;;;;;;5072090;28;20380;-70
2022/06/17 10:49:16;;;;;;;4.10;3.70;;;24.90;56.60;;;;;;5071466;28;20396;-70
2022/06/17 10:51:44;;;;;;;4.00;3.60;;;24.90;56.60;;;;;;5038212;28;20404;-69
2022/06/17 10:54:35;;;;;;;4.10;3.70;;;24.90;56.50;;;;;;5072033;28;20391;-70
2022/06/17 10:57:11;;;;;;;4.00;3.60;;;24.90;56.60;;;;;;5071844;28;20396;-70
2022/06/17 10:59:43;;;;;;;4.22;3.83;;;24.90;56.50;;;;;;5053516;28;20419;-69
2022/06/17 11:02:20;;;;;;;4.20;3.80;;;24.90;56.50;;;;;;5071895;28;20432;-70
2022/06/17 11:04:54;;;;;;;4.22;3.88;;;24.90;56.40;;;;;;5071255;28;20399;-69
2022/06/17 11:07:33;;;;;;;4.13;3.70;;;24.90;56.40;;;;;;5051226;28;20797;-70
2022/06/17 11:10:13;;;;;;;4.00;3.60;;;24.90;56.40;;;;;;5053764;28;20423;-70
2022/06/17 11:12:53;;;;;;;4.20;3.80;;;24.90;56.40;;;;;;5070960;28;20478;-70
2022/06/17 11:15:20;;;;;;;4.10;3.70;;;25.00;56.40;;;;;;5071684;28;20469;-70
2022/06/17 11:17:50;;;;;;;4.05;3.75;;;25.00;56.40;;;;;;5071322;28;20408;-69
2022/06/17 11:20:16;;;;;;;3.97;3.58;;;24.90;56.30;;;;;;5071620;28;20863;-69
2022/06/17 11:22:58;;;;;;;3.97;3.67;;;25.00;56.40;;;;;;5070795;28;20395;-70
2022/06/17 11:25:35;;;;;;;4.30;3.90;;;25.00;56.40;;;;;;5071630;28;20457;-70
2022/06/17 11:28:19;;;;;;;3.83;3.53;;;25.00;56.40;;;;;;5053484;28;20438;-70
2022/06/17 11:30:57;;;;;;;4.40;3.67;;;25.00;56.40;;;;;;5052905;28;20456;-70
2022/06/17 11:33:52;;;;;;;3.95;3.58;;;25.00;56.30;;;;;;5071379;28;20438;-70
2022/06/17 11:36:21;;;;;;;4.20;3.80;;;25.00;56.30;;;;;;5045440;28;20729;-70
2022/06/17 11:38:47;;;;;;;4.00;3.60;;;25.00;56.20;;;;;;5070724;28;20418;-69
2022/06/17 11:41:41;;;;;;;4.30;3.90;;;25.00;56.20;;;;;;5071424;28;20475;-70
2022/06/17 11:44:17;;;;;;;4.00;3.70;;;25.00;56.20;;;;;;5069279;28;20387;-69
2022/06/17 11:46:54;;;;;;;3.72;3.42;;;25.00;56.10;;;;;;5070791;28;20388;-70
2022/06/17 11:49:21;;;;;;;4.10;3.70;;;25.00;56.10;;;;;;5071269;28;20864;-70
2022/06/17 11:51:49;;;;;;;3.90;3.60;;;25.00;56.00;;;;;;5053231;28;20387;-70
2022/06/17 11:54:23;;;;;;;4.10;3.70;;;25.00;56.00;;;;;;5071245;28;20387;-69
2022/06/17 11:56:51;;;;;;;3.85;3.55;;;25.00;56.00;;;;;;5070656;28;20423;-70
2022/06/17 11:59:18;;;;;;;4.15;3.75;;;25.00;56.00;;;;;;5071155;28;20443;-70
2022/06/17 12:02:00;;;;;;;4.20;3.90;;;25.00;56.00;;;;;;5071037;28;20392;-70
2022/06/17 12:04:50;;;;;;;3.83;3.53;;;25.00;56.00;;;;;;5071214;28;20380;-70
2022/06/17 12:07:49;;;;;;;4.25;3.85;;;25.10;56.00;;;;;;5041691;28;20411;-70
2022/06/17 12:10:46;;;;;;;4.38;3.60;;;25.10;56.00;;;;;;5071000;28;20384;-70
2022/06/17 12:13:30;;;;;;;4.00;3.70;;;25.10;55.90;;;;;;5052872;28;20422;-69
2022/06/17 12:16:19;;;;;;;4.20;3.80;;;25.10;55.90;;;;;;5071032;28;20392;-70
2022/06/17 12:18:47;;;;;;;4.40;4.00;;;25.10;55.90;;;;;;5070384;28;20928;-70
2022/06/17 12:21:31;;;;;;;4.20;3.80;;;25.10;55.90;;;;;;5071047;28;20538;-70
2022/06/17 12:24:24;;;;;;;3.90;3.60;;;25.10;55.80;;;;;;5052946;28;20879;-69
2022/06/17 12:27:18;;;;;;;4.18;3.78;;;25.10;55.80;;;;;;5052612;28;20795;-70
2022/06/17 12:29:52;;;;;;;3.80;3.50;;;25.10;55.70;;;;;;5070857;28;20399;-69
2022/06/17 12:32:26;;;;;;;4.03;3.63;;;25.10;55.70;;;;;;5070906;28;20388;-70
2022/06/17 12:34:57;;;;;;;4.53;4.22;;;25.20;55.80;;;;;;5072091;28;20384;-70
2022/06/17 12:37:29;;;;;;;3.72;3.42;;;25.20;55.70;;;;;;5074506;28;20808;-70
2022/06/17 12:40:08;;;;;;;4.10;3.70;;;25.10;55.70;;;;;;5074429;28;20484;-70
2022/06/17 12:42:45;;;;;;;4.10;3.80;;;25.10;55.60;;;;;;5074779;28;20740;-70
2022/06/17 12:45:34;;;;;;;3.90;3.50;;;25.20;55.60;;;;;;5074405;28;20403;-70
2022/06/17 12:48:12;;;;;;;3.90;3.53;;;25.20;55.60;;;;;;5074322;28;20922;-70
2022/06/17 12:53:55;;;;;;;3.83;3.53;;;25.20;55.50;;;;;;5074243;28;20382;-69
2022/06/17 12:56:50;;;;;;;3.90;3.60;;;25.20;55.40;;;;;;5056186;28;20760;-70
2022/06/17 12:59:42;;;;;;;4.00;3.63;;;25.20;55.30;;;;;;5073697;28;20408;-69
2022/06/17 13:02:49;;;;;;;3.65;3.35;;;25.20;55.30;;;;;;5055641;28;20763;-69
2022/06/17 13:05:34;;;;;;;3.72;3.33;;;25.20;55.80;;;;;;5051619;28;20403;-68
2022/06/17 13:08:00;;;;;;;3.72;3.42;;;25.20;55.20;;;;;;5056137;28;20865;-68
2022/06/17 13:10:48;;;;;;;3.87;3.47;;;25.20;55.10;;;;;;5056061;28;20419;-70
2022/06/17 13:13:24;;;;;;;3.80;3.20;;;25.20;55.10;;;;;;5073745;28;20423;-68
2022/06/17 13:15:56;;;;;;;3.57;3.27;;;25.30;55.20;;;;;;5073791;28;20398;-70
2022/06/17 13:18:50;;;;;;;3.60;3.30;;;25.30;55.10;;;;;;5073875;28;20450;-70
2022/06/17 13:21:38;;;;;;;3.70;3.40;;;25.30;55.00;;;;;;5073821;28;20380;-70
2022/06/17 13:24:04;;;;;;;3.63;3.33;;;25.30;55.10;;;;;;5073814;28;20396;-70
2022/06/17 13:26:40;;;;;;;3.60;3.30;;;25.30;55.00;;;;;;5073941;28;20425;-71
2022/06/17 13:29:41;;;;;;;3.78;3.40;;;25.30;55.00;;;;;;5073801;28;20490;-70
2022/06/17 13:32:13;;;;;;;3.33;3.03;;;25.30;54.90;;;;;;5049960;28;20457;-70
2022/06/17 13:34:53;;;;;;;3.67;3.37;;;25.30;54.90;;;;;;5073310;28;20380;-69